Alice Town, Bahamas

9:46 PM EDT on July 24, 2016 (GMT -0400)
IBIMINIA2 | | Change Station

Elev 0 ft 25.73 °N, 79.30 °W | Updated 1 minute ago

Mostly Cloudy
Mostly Cloudy
80.5 °F
Feels Like 86 °F
N
0.0
Wind Variable Wind from East

Today
High -- | Low -- °F
--% Chance of Precip.
Yesterday
High -- | Low -- °F
Precip. -- in
Pressure 30.06 in
Visibility 10.0 miles
Clouds Scattered Clouds 2000 ft
Mostly Cloudy 17000 ft
Mostly Cloudy 25000 ft
Heat Index 86 °F
Dew Point 75 °F
Humidity 82%
Rainfall 0.05 in
Snow Depth Not available.
6:39 AM 8:07 PM
Waning Gibbous, 71% visible
METAR KFLL 250053Z 13006KT 10SM SCT020 BKN170 BKN250 28/23 A3006 RMK AO2 SLP178 T02830233 $
Pressure 30.06 in
Visibility 10.0 miles
Clouds Scattered Clouds 2000 ft
Mostly Cloudy 17000 ft
Mostly Cloudy 25000 ft
Heat Index 86 °F
Dew Point 75 °F
Humidity 82%
Rainfall 0.05 in
Snow Depth Not available.
6:39 AM 8:07 PM
Waning Gibbous, 71% visible
METAR KFLL 250053Z 13006KT 10SM SCT020 BKN170 BKN250 28/23 A3006 RMK AO2 SLP178 T02830233 $

10-Day Weather Forecast

Almanac

Astronomy

Jul. 24, 2016 Rise Set
Actual Time
Civil Twilight
Nautical Twilight
Astronomical Twilight
Moon
Length of Visible Light
Length of Day
Tomorrow will be .
, % of the Moon is Illuminated

Today's Extremes

Country Highs Country Lows

Community

WunderPhotos

Upload Photos

1,927,233 photos uploaded!

WunderBlog® & News

Nearby

Air Quality

  Air Quality AQ Index Pollutant
Not available.

Snow Depth

Station Depth Elevation

Earthquake Activity

City Distance Mag. Time & Date
Minimum magnitude displayed is 2.5.

Coastal Water Temperatures

Place Temperature

Stations

Nearby Weather Stations

Station Location Temp. Windchill Dew Point Humidity Wind Precip. Elev Updated Type